Hovedside
METAR-TAF:

METAR-TAF

Lufthavner :

Conakry internasjonale lufthavn

Conakry, Guinea

breddegrad: 09-34N, lengdegrad: 013-37W, høyde over havet: 26 m

Gjeldene værobservasjon

Denne rapporten ble laget for 33 minutter siden, klokken 06:00 UTC
Flau vind
Temperatur 23°C
Luftfuktighet 89%
Trykk 1012 hPa
Sikt: 3000 m
dis

METAR: GUCY 120600Z 00000KT 3000 BR NSC 23/21 Q1012 NOSIG

Tid: 06:33 (06:33 UTC)

Varsel

Denne rapporten ble laget for 1 time og 33 minutter siden, klokken 05:00 UTC
Varsel gyldig fra 12. klokken 06 UTC til 13. klokken 12 UTC
Vind 6 kt fra Nordvest
Sikt: 5000 m
dis
Midlertidig
fra 12. klokken 06 UTC til 12. klokken 11 UTC
Vind 2 kt fra skiftende retning
Sikt: 2000 m
Få skyer i en høyde av 1500 ft
dis
Blir
fra 12. klokken 15 UTC til 12. klokken 19 UTC
Vind 4 kt fra Sørvest
Sikt: 7000 m
dis

TAF: GUCY 120500Z 1206/1312 32006KT 5000 HZ NSC TEMPO 1206/1211 VRB02KT 2000 BR FEW015 BECMG 1215/1219 22004KT 7000 HZ NSC

Værobservasjoner og værvarsel for over 4000 flyplasser (METAR- og TAF-rapporter).

Tilgjengelige stasjoner er representert av de røde og gule prikkene på kartet.

Hold musepekeren over prikken for å se navnet på stasjonen.

Klikk så for å se værobservasjoner og -varsler.

For å forandre kartet kan du klikke på den grønne knappen med svart kryss for å zoome inn, på den grønne knappen med strek for å zoome ut, eller på de grønne pilene for å se tilstøtende kart.


METAR-TAF: